sensor_id;sensor_type;location;lat;lon;timestamp;pressure;altitude;pressure_sealevel;temperature;humidity
57594;BME280;43423;46.510;6.686;2023-04-21T00:00:54;95892.56;;;7.44;83.55
57594;BME280;43423;46.510;6.686;2023-04-21T00:03:21;95887.91;;;7.50;83.04
57594;BME280;43423;46.510;6.686;2023-04-21T00:05:49;95888.97;;;7.52;85.22
57594;BME280;43423;46.510;6.686;2023-04-21T00:08:15;95891.88;;;7.49;84.33
57594;BME280;43423;46.510;6.686;2023-04-21T00:10:41;95887.16;;;7.49;83.37
57594;BME280;43423;46.510;6.686;2023-04-21T00:13:07;95873.56;;;7.40;82.97
57594;BME280;43423;46.510;6.686;2023-04-21T00:15:33;95885.00;;;7.39;82.22
57594;BME280;43423;46.510;6.686;2023-04-21T00:17:59;95883.22;;;7.50;84.77
57594;BME280;43423;46.510;6.686;2023-04-21T00:20:25;95876.22;;;7.49;84.59
57594;BME280;43423;46.510;6.686;2023-04-21T00:22:55;95869.16;;;7.43;83.71
57594;BME280;43423;46.510;6.686;2023-04-21T00:25:21;95878.66;;;7.47;82.95
57594;BME280;43423;46.510;6.686;2023-04-21T00:27:47;95874.44;;;7.46;84.10
57594;BME280;43423;46.510;6.686;2023-04-21T00:30:13;95877.91;;;7.47;83.26
57594;BME280;43423;46.510;6.686;2023-04-21T00:32:38;95876.03;;;7.53;86.15
57594;BME280;43423;46.510;6.686;2023-04-21T00:35:04;95873.19;;;7.47;85.33
57594;BME280;43423;46.510;6.686;2023-04-21T00:37:30;95879.25;;;7.51;83.87
57594;BME280;43423;46.510;6.686;2023-04-21T00:39:56;95870.38;;;7.56;83.85
57594;BME280;43423;46.510;6.686;2023-04-21T00:42:23;95868.09;;;7.55;84.01
57594;BME280;43423;46.510;6.686;2023-04-21T00:44:49;95868.84;;;7.55;81.58
57594;BME280;43423;46.510;6.686;2023-04-21T00:47:15;95868.31;;;7.51;81.97
57594;BME280;43423;46.510;6.686;2023-04-21T00:49:41;95875.38;;;7.43;83.08
57594;BME280;43423;46.510;6.686;2023-04-21T00:52:08;95869.31;;;7.24;84.73
57594;BME280;43423;46.510;6.686;2023-04-21T00:54:34;95861.31;;;7.21;84.93
57594;BME280;43423;46.510;6.686;2023-04-21T00:57:00;95866.69;;;7.30;84.51
57594;BME280;43423;46.510;6.686;2023-04-21T00:59:28;95860.09;;;7.37;84.05
57594;BME280;43423;46.510;6.686;2023-04-21T01:01:54;95870.38;;;7.42;82.61
57594;BME280;43423;46.510;6.686;2023-04-21T01:04:20;95864.34;;;7.52;81.80
57594;BME280;43423;46.510;6.686;2023-04-21T01:06:46;95861.50;;;7.62;81.60
57594;BME280;43423;46.510;6.686;2023-04-21T01:09:11;95857.25;;;7.61;82.34
57594;BME280;43423;46.510;6.686;2023-04-21T01:11:38;95864.13;;;7.71;82.93
57594;BME280;43423;46.510;6.686;2023-04-21T01:14:04;95861.41;;;7.56;81.57
57594;BME280;43423;46.510;6.686;2023-04-21T01:16:30;95865.75;;;7.63;81.41
57594;BME280;43423;46.510;6.686;2023-04-21T01:18:57;95865.47;;;7.61;82.54
57594;BME280;43423;46.510;6.686;2023-04-21T01:21:24;95858.94;;;7.58;82.29
57594;BME280;43423;46.510;6.686;2023-04-21T01:23:51;95853.19;;;7.56;83.09
57594;BME280;43423;46.510;6.686;2023-04-21T01:26:18;95856.41;;;7.54;82.35
57594;BME280;43423;46.510;6.686;2023-04-21T01:28:45;95851.22;;;7.56;82.07
57594;BME280;43423;46.510;6.686;2023-04-21T01:31:16;95852.53;;;7.46;81.31
57594;BME280;43423;46.510;6.686;2023-04-21T01:33:43;95851.41;;;7.38;81.33
57594;BME280;43423;46.510;6.686;2023-04-21T01:36:09;95848.41;;;7.36;83.05
57594;BME280;43423;46.510;6.686;2023-04-21T01:38:41;95849.63;;;7.35;82.76
57594;BME280;43423;46.510;6.686;2023-04-21T01:41:08;95846.22;;;7.40;84.50
57594;BME280;43423;46.510;6.686;2023-04-21T01:43:34;95854.44;;;7.40;84.09
57594;BME280;43423;46.510;6.686;2023-04-21T01:46:00;95855.66;;;7.39;84.57
57594;BME280;43423;46.510;6.686;2023-04-21T01:48:25;95848.97;;;7.40;84.14
57594;BME280;43423;46.510;6.686;2023-04-21T01:50:51;95848.84;;;7.49;85.16
57594;BME280;43423;46.510;6.686;2023-04-21T01:53:17;95850.38;;;7.50;84.41
57594;BME280;43423;46.510;6.686;2023-04-21T01:55:42;95855.44;;;7.57;84.85
57594;BME280;43423;46.510;6.686;2023-04-21T01:58:08;95856.31;;;7.64;83.29
57594;BME280;43423;46.510;6.686;2023-04-21T02:00:34;95849.91;;;7.67;82.69
57594;BME280;43423;46.510;6.686;2023-04-21T02:02:59;95849.97;;;7.57;82.88
57594;BME280;43423;46.510;6.686;2023-04-21T02:05:25;95848.69;;;7.53;82.81
57594;BME280;43423;46.510;6.686;2023-04-21T02:07:51;95847.72;;;7.56;82.90
57594;BME280;43423;46.510;6.686;2023-04-21T02:10:16;95849.06;;;7.61;81.69
57594;BME280;43423;46.510;6.686;2023-04-21T02:12:42;95844.50;;;7.57;81.54
57594;BME280;43423;46.510;6.686;2023-04-21T02:15:08;95839.13;;;7.63;80.96
57594;BME280;43423;46.510;6.686;2023-04-21T02:17:34;95846.03;;;7.59;81.01
57594;BME280;43423;46.510;6.686;2023-04-21T02:20:00;95849.97;;;7.57;81.19
57594;BME280;43423;46.510;6.686;2023-04-21T02:22:26;95841.50;;;7.55;81.35
57594;BME280;43423;46.510;6.686;2023-04-21T02:24:52;95839.63;;;7.62;80.54
57594;BME280;43423;46.510;6.686;2023-04-21T02:27:17;95840.38;;;7.62;81.11
57594;BME280;43423;46.510;6.686;2023-04-21T02:29:43;95849.91;;;7.67;81.11
57594;BME280;43423;46.510;6.686;2023-04-21T02:32:08;95846.59;;;7.63;80.74
57594;BME280;43423;46.510;6.686;2023-04-21T02:34:34;95846.03;;;7.59;80.67
57594;BME280;43423;46.510;6.686;2023-04-21T02:36:59;95841.31;;;7.59;81.23
57594;BME280;43423;46.510;6.686;2023-04-21T02:39:25;95840.19;;;7.51;81.35
57594;BME280;43423;46.510;6.686;2023-04-21T02:41:51;95841.50;;;7.41;81.65
57594;BME280;43423;46.510;6.686;2023-04-21T02:44:17;95852.81;;;7.34;83.07
57594;BME280;43423;46.510;6.686;2023-04-21T02:46:42;95860.94;;;7.28;82.48
57594;BME280;43423;46.510;6.686;2023-04-21T02:49:09;95855.28;;;7.32;82.71
57594;BME280;43423;46.510;6.686;2023-04-21T02:51:34;95853.03;;;7.30;81.56
57594;BME280;43423;46.510;6.686;2023-04-21T02:54:00;95856.31;;;7.34;80.62
57594;BME280;43423;46.510;6.686;2023-04-21T02:56:25;95860.09;;;7.37;81.22
57594;BME280;43423;46.510;6.686;2023-04-21T02:58:51;95852.06;;;7.33;81.06
57594;BME280;43423;46.510;6.686;2023-04-21T03:01:17;95850.84;;;7.34;80.89
57594;BME280;43423;46.510;6.686;2023-04-21T03:03:42;95853.03;;;7.30;82.10
57594;BME280;43423;46.510;6.686;2023-04-21T03:06:08;95857.25;;;7.31;82.61
57594;BME280;43423;46.510;6.686;2023-04-21T03:08:33;95868.09;;;7.40;81.57
57594;BME280;43423;46.510;6.686;2023-04-21T03:11:00;95866.22;;;7.46;81.45
57594;BME280;43423;46.510;6.686;2023-04-21T03:13:26;95863.75;;;7.48;81.42
57594;BME280;43423;46.510;6.686;2023-04-21T03:15:51;95860.56;;;7.35;80.71
57594;BME280;43423;46.510;6.686;2023-04-21T03:18:17;95865.47;;;7.46;80.52
57594;BME280;43423;46.510;6.686;2023-04-21T03:20:43;95861.72;;;7.43;80.77
57594;BME280;43423;46.510;6.686;2023-04-21T03:23:09;95860.19;;;7.42;81.33
57594;BME280;43423;46.510;6.686;2023-04-21T03:25:35;95868.22;;;7.46;81.25
57594;BME280;43423;46.510;6.686;2023-04-21T03:28:02;95864.25;;;7.47;81.05
57594;BME280;43423;46.510;6.686;2023-04-21T03:30:27;95878.13;;;7.43;81.26
57594;BME280;43423;46.510;6.686;2023-04-21T03:32:53;95873.50;;;7.35;81.12
57594;BME280;43423;46.510;6.686;2023-04-21T03:35:23;95873.03;;;7.36;81.14
57594;BME280;43423;46.510;6.686;2023-04-21T03:37:49;95864.81;;;7.36;80.71
57594;BME280;43423;46.510;6.686;2023-04-21T03:40:14;95865.38;;;7.40;81.24
57594;BME280;43423;46.510;6.686;2023-04-21T03:42:40;95862.34;;;7.23;82.48
57594;BME280;43423;46.510;6.686;2023-04-21T03:45:07;95865.19;;;7.29;82.86
57594;BME280;43423;46.510;6.686;2023-04-21T03:47:34;95867.56;;;7.36;82.36
57594;BME280;43423;46.510;6.686;2023-04-21T03:50:01;95876.88;;;7.44;82.39
57594;BME280;43423;46.510;6.686;2023-04-21T03:52:27;95858.03;;;7.46;82.58
57594;BME280;43423;46.510;6.686;2023-04-21T03:54:53;95862.53;;;7.49;82.01
57594;BME280;43423;46.510;6.686;2023-04-21T03:57:19;95852.66;;;7.52;82.55
57594;BME280;43423;46.510;6.686;2023-04-21T03:59:44;95862.84;;;7.51;81.75
57594;BME280;43423;46.510;6.686;2023-04-21T04:02:10;95851.91;;;7.51;82.35
57594;BME280;43423;46.510;6.686;2023-04-21T04:04:35;95846.81;;;7.44;82.59
57594;BME280;43423;46.510;6.686;2023-04-21T04:07:01;95846.31;;;7.46;81.94
57594;BME280;43423;46.510;6.686;2023-04-21T04:09:27;95848.31;;;7.45;80.66
57594;BME280;43423;46.510;6.686;2023-04-21T04:11:52;95849.53;;;7.44;81.44
57594;BME280;43423;46.510;6.686;2023-04-21T04:14:18;95850.09;;;7.48;82.05
57594;BME280;43423;46.510;6.686;2023-04-21T04:16:44;95862.91;;;7.42;81.27
57594;BME280;43423;46.510;6.686;2023-04-21T04:19:09;95867.72;;;7.47;81.37
57594;BME280;43423;46.510;6.686;2023-04-21T04:21:36;95872.44;;;7.47;82.07
57594;BME280;43423;46.510;6.686;2023-04-21T04:24:02;95870.00;;;7.49;82.09
57594;BME280;43423;46.510;6.686;2023-04-21T04:26:29;95869.91;;;7.43;82.20
57594;BME280;43423;46.510;6.686;2023-04-21T04:28:58;95875.84;;;7.42;81.16
57594;BME280;43423;46.510;6.686;2023-04-21T04:31:24;95880.28;;;7.39;80.62
57594;BME280;43423;46.510;6.686;2023-04-21T04:33:50;95873.41;;;7.29;80.72
57594;BME280;43423;46.510;6.686;2023-04-21T04:36:16;95877.00;;;7.35;80.59
57594;BME280;43423;46.510;6.686;2023-04-21T04:38:42;95881.97;;;7.37;80.76
57594;BME280;43423;46.510;6.686;2023-04-21T04:41:08;95885.63;;;7.34;80.05
57594;BME280;43423;46.510;6.686;2023-04-21T04:43:34;95885.75;;;7.39;80.45
57594;BME280;43423;46.510;6.686;2023-04-21T04:46:04;95873.19;;;7.33;80.96
57594;BME280;43423;46.510;6.686;2023-04-21T04:48:29;95889.31;;;7.31;82.02
57594;BME280;43423;46.510;6.686;2023-04-21T04:50:55;95883.22;;;7.36;81.62
57594;BME280;43423;46.510;6.686;2023-04-21T04:53:21;95881.22;;;7.36;81.31
57594;BME280;43423;46.510;6.686;2023-04-21T04:55:46;95876.59;;;7.42;80.84
57594;BME280;43423;46.510;6.686;2023-04-21T04:58:12;95873.84;;;7.42;81.86
57594;BME280;43423;46.510;6.686;2023-04-21T05:00:38;95874.16;;;7.44;81.68
57594;BME280;43423;46.510;6.686;2023-04-21T05:03:04;95866.22;;;7.46;81.14
57594;BME280;43423;46.510;6.686;2023-04-21T05:05:29;95871.81;;;7.52;80.49
57594;BME280;43423;46.510;6.686;2023-04-21T05:07:55;95877.44;;;7.48;80.32
57594;BME280;43423;46.510;6.686;2023-04-21T05:10:22;95876.59;;;7.42;80.03
57594;BME280;43423;46.510;6.686;2023-04-21T05:12:48;95874.91;;;7.45;80.60
57594;BME280;43423;46.510;6.686;2023-04-21T05:15:14;95874.91;;;7.45;80.73
57594;BME280;43423;46.510;6.686;2023-04-21T05:17:39;95872.66;;;7.43;80.72
57594;BME280;43423;46.510;6.686;2023-04-21T05:20:06;95872.66;;;7.43;81.01
57594;BME280;43423;46.510;6.686;2023-04-21T05:22:38;95872.66;;;7.43;81.99
57594;BME280;43423;46.510;6.686;2023-04-21T05:25:05;95874.16;;;7.44;81.27
57594;BME280;43423;46.510;6.686;2023-04-21T05:27:31;95869.81;;;7.52;81.20
57594;BME280;43423;46.510;6.686;2023-04-21T05:29:59;95871.03;;;7.51;80.97
57594;BME280;43423;46.510;6.686;2023-04-21T05:32:25;95869.81;;;7.52;80.70
57594;BME280;43423;46.510;6.686;2023-04-21T05:34:50;95874.34;;;7.55;80.34
57594;BME280;43423;46.510;6.686;2023-04-21T05:37:16;95871.91;;;7.43;81.40
57594;BME280;43423;46.510;6.686;2023-04-21T05:39:42;95875.75;;;7.51;80.99
57594;BME280;43423;46.510;6.686;2023-04-21T05:42:10;95864.44;;;7.43;81.51
57594;BME280;43423;46.510;6.686;2023-04-21T05:44:36;95864.06;;;7.50;81.20
57594;BME280;43423;46.510;6.686;2023-04-21T05:47:05;95862.53;;;7.49;81.36
57594;BME280;43423;46.510;6.686;2023-04-21T05:49:32;95862.84;;;7.51;81.10
57594;BME280;43423;46.510;6.686;2023-04-21T05:51:58;95860.38;;;7.53;81.37
57594;BME280;43423;46.510;6.686;2023-04-21T05:54:24;95879.16;;;7.61;81.11
57594;BME280;43423;46.510;6.686;2023-04-21T05:56:50;95887.72;;;7.53;81.57
57594;BME280;43423;46.510;6.686;2023-04-21T05:59:16;95882.81;;;7.57;81.06
57594;BME280;43423;46.510;6.686;2023-04-21T06:01:42;95891.50;;;7.71;80.66
57594;BME280;43423;46.510;6.686;2023-04-21T06:04:08;95871.88;;;7.72;80.87
57594;BME280;43423;46.510;6.686;2023-04-21T06:06:33;95868.25;;;7.81;80.61
57594;BME280;43423;46.510;6.686;2023-04-21T06:08:59;95869.13;;;7.87;80.83
57594;BME280;43423;46.510;6.686;2023-04-21T06:11:25;95864.66;;;7.90;78.83
57594;BME280;43423;46.510;6.686;2023-04-21T06:13:51;95857.78;;;7.94;79.60
57594;BME280;43423;46.510;6.686;2023-04-21T06:16:19;95865.78;;;7.98;79.74
57594;BME280;43423;46.510;6.686;2023-04-21T06:18:44;95888.00;;;7.85;79.58
57594;BME280;43423;46.510;6.686;2023-04-21T06:21:10;95888.59;;;7.74;80.01
57594;BME280;43423;46.510;6.686;2023-04-21T06:23:36;95880.44;;;7.80;81.63
57594;BME280;43423;46.510;6.686;2023-04-21T06:26:03;95884.69;;;7.81;79.56
57594;BME280;43423;46.510;6.686;2023-04-21T06:28:30;95881.69;;;7.79;80.97
57594;BME280;43423;46.510;6.686;2023-04-21T06:30:57;95879.31;;;7.72;81.97
57594;BME280;43423;46.510;6.686;2023-04-21T06:33:23;95879.53;;;7.53;82.57
57594;BME280;43423;46.510;6.686;2023-04-21T06:35:48;95875.66;;;7.60;83.29
57594;BME280;43423;46.510;6.686;2023-04-21T06:38:14;95864.13;;;7.71;84.46
57594;BME280;43423;46.510;6.686;2023-04-21T06:40:40;95854.41;;;7.70;85.30
57594;BME280;43423;46.510;6.686;2023-04-21T06:43:06;95846.78;;;8.09;81.56
57594;BME280;43423;46.510;6.686;2023-04-21T06:45:31;95841.72;;;8.57;77.50
57594;BME280;43423;46.510;6.686;2023-04-21T06:47:57;95843.31;;;9.10;75.94
57594;BME280;43423;46.510;6.686;2023-04-21T06:50:22;95847.19;;;9.82;73.53
57594;BME280;43423;46.510;6.686;2023-04-21T06:52:48;95846.19;;;10.59;69.51
57594;BME280;43423;46.510;6.686;2023-04-21T06:55:14;95849.34;;;11.06;66.50
57594;BME280;43423;46.510;6.686;2023-04-21T06:57:39;95858.81;;;10.94;66.00
57594;BME280;43423;46.510;6.686;2023-04-21T07:00:05;95864.88;;;11.09;65.12
57594;BME280;43423;46.510;6.686;2023-04-21T07:02:31;95854.56;;;10.93;64.90
57594;BME280;43423;46.510;6.686;2023-04-21T07:04:57;95866.19;;;11.58;63.41
57594;BME280;43423;46.510;6.686;2023-04-21T07:07:23;95857.75;;;10.80;65.46
57594;BME280;43423;46.510;6.686;2023-04-21T07:09:48;95865.44;;;10.65;66.07
57594;BME280;43423;46.510;6.686;2023-04-21T07:12:14;95865.78;;;9.98;66.92
57594;BME280;43423;46.510;6.686;2023-04-21T07:14:39;95868.53;;;9.66;70.06
57594;BME280;43423;46.510;6.686;2023-04-21T07:17:05;95855.91;;;9.80;69.97
57594;BME280;43423;46.510;6.686;2023-04-21T07:19:31;95848.63;;;9.45;71.80
57594;BME280;43423;46.510;6.686;2023-04-21T07:21:57;95846.91;;;9.48;70.71
57594;BME280;43423;46.510;6.686;2023-04-21T07:24:23;95852.47;;;9.28;71.58
57594;BME280;43423;46.510;6.686;2023-04-21T07:26:49;95859.38;;;8.97;72.61
57594;BME280;43423;46.510;6.686;2023-04-21T07:29:14;95871.84;;;8.98;73.57
57594;BME280;43423;46.510;6.686;2023-04-21T07:31:40;95867.53;;;8.91;73.37
57594;BME280;43423;46.510;6.686;2023-04-21T07:34:05;95852.19;;;8.59;75.60
57594;BME280;43423;46.510;6.686;2023-04-21T07:36:31;95863.88;;;9.00;75.97
57594;BME280;43423;46.510;6.686;2023-04-21T07:38:57;95856.66;;;8.56;77.74
57594;BME280;43423;46.510;6.686;2023-04-21T07:41:23;95854.69;;;8.22;79.88
57594;BME280;43423;46.510;6.686;2023-04-21T07:43:48;95861.59;;;8.73;80.49
57594;BME280;43423;46.510;6.686;2023-04-21T07:46:14;95871.13;;;9.23;79.09
57594;BME280;43423;46.510;6.686;2023-04-21T07:48:40;95870.75;;;9.36;76.50
57594;BME280;43423;46.510;6.686;2023-04-21T07:51:06;95865.28;;;9.16;78.28
57594;BME280;43423;46.510;6.686;2023-04-21T07:53:31;95870.09;;;8.75;79.62
57594;BME280;43423;46.510;6.686;2023-04-21T07:55:57;95865.03;;;8.47;80.76
57594;BME280;43423;46.510;6.686;2023-04-21T07:58:23;95870.72;;;8.64;81.61
57594;BME280;43423;46.510;6.686;2023-04-21T08:00:49;95873.88;;;8.77;81.57
57594;BME280;43423;46.510;6.686;2023-04-21T08:03:15;95875.97;;;8.47;80.57
57594;BME280;43423;46.510;6.686;2023-04-21T08:05:41;95878.16;;;8.43;79.78
57594;BME280;43423;46.510;6.686;2023-04-21T08:08:06;95877.13;;;8.41;79.95
57594;BME280;43423;46.510;6.686;2023-04-21T08:10:32;95865.28;;;8.49;79.54
57594;BME280;43423;46.510;6.686;2023-04-21T08:12:58;95860.78;;;8.46;79.34
57594;BME280;43423;46.510;6.686;2023-04-21T08:15:24;95858.38;;;8.19;79.39
57594;BME280;43423;46.510;6.686;2023-04-21T08:17:49;95884.75;;;8.51;79.55
57594;BME280;43423;46.510;6.686;2023-04-21T08:20:16;95883.22;;;8.50;77.76
57594;BME280;43423;46.510;6.686;2023-04-21T08:22:42;95879.41;;;8.62;77.50
57594;BME280;43423;46.510;6.686;2023-04-21T08:25:08;95879.66;;;8.44;77.82
57594;BME280;43423;46.510;6.686;2023-04-21T08:27:37;95879.81;;;8.55;78.71
57594;BME280;43423;46.510;6.686;2023-04-21T08:30:03;95888.16;;;8.66;77.71
57594;BME280;43423;46.510;6.686;2023-04-21T08:32:29;95881.66;;;8.64;77.35
57594;BME280;43423;46.510;6.686;2023-04-21T08:34:55;95875.91;;;8.62;77.81
57594;BME280;43423;46.510;6.686;2023-04-21T08:37:21;95887.69;;;8.68;77.68
57594;BME280;43423;46.510;6.686;2023-04-21T08:39:48;95883.22;;;8.50;78.13
57594;BME280;43423;46.510;6.686;2023-04-21T08:42:18;95877.06;;;8.76;78.41
57594;BME280;43423;46.510;6.686;2023-04-21T08:44:44;95873.63;;;8.60;77.15
57594;BME280;43423;46.510;6.686;2023-04-21T08:47:12;95882.97;;;8.68;77.51
57594;BME280;43423;46.510;6.686;2023-04-21T08:49:39;95910.97;;;8.23;78.80
57594;BME280;43423;46.510;6.686;2023-04-21T08:52:05;95908.81;;;8.12;79.92
57594;BME280;43423;46.510;6.686;2023-04-21T08:54:32;95904.25;;;8.24;79.76
57594;BME280;43423;46.510;6.686;2023-04-21T08:56:58;95914.59;;;8.14;80.73
57594;BME280;43423;46.510;6.686;2023-04-21T08:59:24;95916.91;;;8.21;80.73
57594;BME280;43423;46.510;6.686;2023-04-21T09:02:11;95920.22;;;8.25;79.57
57594;BME280;43423;46.510;6.686;2023-04-21T09:04:42;95911.84;;;8.14;80.00
57594;BME280;43423;46.510;6.686;2023-04-21T09:07:08;95917.13;;;8.18;79.63
57594;BME280;43423;46.510;6.686;2023-04-21T09:09:53;95940.34;;;8.22;79.59
57594;BME280;43423;46.510;6.686;2023-04-21T09:12:19;95937.88;;;8.24;80.30
57594;BME280;43423;46.510;6.686;2023-04-21T09:14:45;95942.50;;;8.33;81.15
57594;BME280;43423;46.510;6.686;2023-04-21T09:17:11;95937.66;;;8.28;79.63
57594;BME280;43423;46.510;6.686;2023-04-21T09:19:37;95936.16;;;8.42;80.58
57594;BME280;43423;46.510;6.686;2023-04-21T09:22:03;95934.75;;;8.46;79.38
57594;BME280;43423;46.510;6.686;2023-04-21T09:24:30;95929.81;;;8.50;78.60
57594;BME280;43423;46.510;6.686;2023-04-21T09:26:56;95938.94;;;8.62;78.77
57594;BME280;43423;46.510;6.686;2023-04-21T09:29:22;95950.44;;;8.31;79.13
57594;BME280;43423;46.510;6.686;2023-04-21T09:31:49;95958.56;;;8.10;79.58
57594;BME280;43423;46.510;6.686;2023-04-21T09:34:21;95972.09;;;7.84;81.54
57594;BME280;43423;46.510;6.686;2023-04-21T09:36:58;95964.34;;;7.68;83.49
57594;BME280;43423;46.510;6.686;2023-04-21T09:39:24;95962.09;;;7.67;84.24
57594;BME280;43423;46.510;6.686;2023-04-21T09:41:50;95975.94;;;7.63;82.91
57594;BME280;43423;46.510;6.686;2023-04-21T09:44:16;95979.81;;;7.71;84.33
57594;BME280;43423;46.510;6.686;2023-04-21T09:46:42;95988.31;;;7.73;83.70
57594;BME280;43423;46.510;6.686;2023-04-21T09:49:10;95972.56;;;7.68;85.03
57594;BME280;43423;46.510;6.686;2023-04-21T09:51:38;95986.81;;;7.72;86.42
57594;BME280;43423;46.510;6.686;2023-04-21T09:54:19;95969.25;;;7.79;85.77
57594;BME280;43423;46.510;6.686;2023-04-21T09:56:48;95953.97;;;7.87;85.41
57594;BME280;43423;46.510;6.686;2023-04-21T09:59:18;95937.31;;;8.05;88.58
57594;BME280;43423;46.510;6.686;2023-04-21T10:01:47;95932.78;;;8.17;91.01
57594;BME280;43423;46.510;6.686;2023-04-21T10:04:14;95908.03;;;8.26;90.55
57594;BME280;43423;46.510;6.686;2023-04-21T10:06:40;95906.69;;;8.36;88.38
57594;BME280;43423;46.510;6.686;2023-04-21T10:09:07;95903.66;;;8.34;89.59
57594;BME280;43423;46.510;6.686;2023-04-21T10:11:35;95900.97;;;8.20;89.47
57594;BME280;43423;46.510;6.686;2023-04-21T10:14:02;95899.19;;;8.17;90.95
57594;BME280;43423;46.510;6.686;2023-04-21T10:16:28;95902.53;;;8.26;92.17
57594;BME280;43423;46.510;6.686;2023-04-21T10:18:54;95901.28;;;8.07;92.66
57594;BME280;43423;46.510;6.686;2023-04-21T10:21:20;95905.16;;;8.00;95.85
57594;BME280;43423;46.510;6.686;2023-04-21T10:23:47;95905.16;;;8.00;94.26
57594;BME280;43423;46.510;6.686;2023-04-21T10:26:17;95920.75;;;7.94;94.08
57594;BME280;43423;46.510;6.686;2023-04-21T10:31:20;95946.31;;;7.62;93.47
57594;BME280;43423;46.510;6.686;2023-04-21T10:36:34;95927.91;;;8.06;96.93
57594;BME280;43423;46.510;6.686;2023-04-21T10:39:06;95900.56;;;8.27;95.75
57594;BME280;43423;46.510;6.686;2023-04-21T10:41:33;95914.81;;;8.31;94.24
57594;BME280;43423;46.510;6.686;2023-04-21T10:44:00;95938.44;;;8.28;92.75
57594;BME280;43423;46.510;6.686;2023-04-21T10:46:40;95931.56;;;8.18;91.21
57594;BME280;43423;46.510;6.686;2023-04-21T10:51:32;95914.50;;;8.08;89.51
57594;BME280;43423;46.510;6.686;2023-04-21T10:53:58;95917.78;;;8.12;88.75
57594;BME280;43423;46.510;6.686;2023-04-21T10:56:24;95906.72;;;8.22;90.15
57594;BME280;43423;46.510;6.686;2023-04-21T10:58:51;95903.31;;;8.27;91.36
57594;BME280;43423;46.510;6.686;2023-04-21T11:01:17;95910.78;;;8.11;91.52
57594;BME280;43423;46.510;6.686;2023-04-21T11:03:43;95912.22;;;8.22;91.13
57594;BME280;43423;46.510;6.686;2023-04-21T11:06:15;95913.38;;;8.50;93.67
57594;BME280;43423;46.510;6.686;2023-04-21T11:08:56;95917.09;;;8.32;91.07
57594;BME280;43423;46.510;6.686;2023-04-21T11:11:22;95906.78;;;8.42;90.59
57594;BME280;43423;46.510;6.686;2023-04-21T11:13:51;95895.63;;;8.66;91.07
57594;BME280;43423;46.510;6.686;2023-04-21T11:16:17;95893.91;;;8.68;88.03
57594;BME280;43423;46.510;6.686;2023-04-21T11:18:43;95890.31;;;8.77;89.92
57594;BME280;43423;46.510;6.686;2023-04-21T11:21:10;95902.13;;;8.68;90.72
57594;BME280;43423;46.510;6.686;2023-04-21T11:23:40;95905.09;;;8.65;89.41
57594;BME280;43423;46.510;6.686;2023-04-21T11:26:06;95913.09;;;8.48;89.28
57594;BME280;43423;46.510;6.686;2023-04-21T11:28:32;95912.88;;;8.52;87.95
57594;BME280;43423;46.510;6.686;2023-04-21T11:30:58;95899.41;;;8.68;89.88
57594;BME280;43423;46.510;6.686;2023-04-21T11:33:23;95897.09;;;8.61;89.13
57594;BME280;43423;46.510;6.686;2023-04-21T11:35:52;95910.50;;;8.59;90.34
57594;BME280;43423;46.510;6.686;2023-04-21T11:38:23;95894.00;;;8.94;90.41
57594;BME280;43423;46.510;6.686;2023-04-21T11:40:49;95894.78;;;9.21;89.94
57594;BME280;43423;46.510;6.686;2023-04-21T11:43:16;95889.22;;;9.15;86.31
57594;BME280;43423;46.510;6.686;2023-04-21T11:45:41;95902.66;;;9.34;86.30
57594;BME280;43423;46.510;6.686;2023-04-21T11:48:17;95908.16;;;9.13;84.90
57594;BME280;43423;46.510;6.686;2023-04-21T11:50:49;95911.47;;;8.77;86.49
57594;BME280;43423;46.510;6.686;2023-04-21T11:53:15;95911.72;;;8.58;90.23
57594;BME280;43423;46.510;6.686;2023-04-21T11:55:44;95911.47;;;8.56;90.08
57594;BME280;43423;46.510;6.686;2023-04-21T11:58:10;95917.63;;;8.51;88.51
57594;BME280;43423;46.510;6.686;2023-04-21T12:00:43;95908.31;;;8.63;90.39
57594;BME280;43423;46.510;6.686;2023-04-21T12:03:09;95900.72;;;8.93;89.94
57594;BME280;43423;46.510;6.686;2023-04-21T12:05:35;95908.84;;;9.29;89.67
57594;BME280;43423;46.510;6.686;2023-04-21T12:08:01;95908.00;;;9.22;88.95
57594;BME280;43423;46.510;6.686;2023-04-21T12:10:29;95912.00;;;9.21;89.44
57594;BME280;43423;46.510;6.686;2023-04-21T12:12:55;95908.31;;;9.04;87.21
57594;BME280;43423;46.510;6.686;2023-04-21T12:15:21;95910.59;;;8.85;88.99
57594;BME280;43423;46.510;6.686;2023-04-21T12:17:49;95920.91;;;8.55;89.65
57594;BME280;43423;46.510;6.686;2023-04-21T12:20:17;95919.97;;;8.58;90.41
57594;BME280;43423;46.510;6.686;2023-04-21T12:22:43;95914.81;;;8.46;88.73
57594;BME280;43423;46.510;6.686;2023-04-21T12:25:08;95910.63;;;8.50;90.17
57594;BME280;43423;46.510;6.686;2023-04-21T12:27:34;95907.03;;;8.79;91.43
57594;BME280;43423;46.510;6.686;2023-04-21T12:30:00;95902.28;;;9.00;89.89
57594;BME280;43423;46.510;6.686;2023-04-21T12:32:25;95909.00;;;9.19;89.07
57594;BME280;43423;46.510;6.686;2023-04-21T12:34:51;95916.28;;;9.02;87.41
57594;BME280;43423;46.510;6.686;2023-04-21T12:37:17;95923.81;;;8.87;87.77
57594;BME280;43423;46.510;6.686;2023-04-21T12:39:43;95918.72;;;8.59;86.61
57594;BME280;43423;46.510;6.686;2023-04-21T12:42:09;95921.75;;;8.61;88.01
57594;BME280;43423;46.510;6.686;2023-04-21T12:44:35;95914.63;;;8.70;88.14
57594;BME280;43423;46.510;6.686;2023-04-21T12:47:00;95920.25;;;8.81;87.58
57594;BME280;43423;46.510;6.686;2023-04-21T12:49:26;95916.41;;;8.73;88.56
57594;BME280;43423;46.510;6.686;2023-04-21T12:51:52;95915.03;;;8.83;87.27
57594;BME280;43423;46.510;6.686;2023-04-21T12:54:18;95917.25;;;8.79;86.94
57594;BME280;43423;46.510;6.686;2023-04-21T12:56:43;95913.38;;;8.91;86.52
57594;BME280;43423;46.510;6.686;2023-04-21T12:59:09;95911.31;;;9.06;87.58
57594;BME280;43423;46.510;6.686;2023-04-21T13:01:37;95907.34;;;9.07;86.68
57594;BME280;43423;46.510;6.686;2023-04-21T13:04:03;95909.56;;;9.03;85.69
57594;BME280;43423;46.510;6.686;2023-04-21T13:06:29;95913.69;;;8.93;86.12
57594;BME280;43423;46.510;6.686;2023-04-21T13:08:55;95909.78;;;8.79;87.09
57594;BME280;43423;46.510;6.686;2023-04-21T13:11:21;95905.16;;;8.91;88.46
57594;BME280;43423;46.510;6.686;2023-04-21T13:13:47;95906.31;;;9.05;85.79